Terminal Aerodrome Forecast
Issued by NWS St Louis, MO

Home | Current Version | Previous Version | Text Only | Print | Product List | Glossary On
Versions: 1 2 3 4 5 6 7 8 9 10 11 12 13 14 15 16 17 18 19 20 21 22 23 24 25 26 27 28 29
956
FTUS43 KLSX 201312 AAB
TAFSTL
TAF AMD
KSTL 201312Z 2013/2118 09012KT P6SM VCTS SCT030CB BKN120
      TEMPO 2013/2015 3SM -SHRA BKN030
     FM201500 12006KT P6SM SCT040 BKN250
     FM201700 16007KT P6SM SCT050
     FM211200 18004KT P6SM SCT110=

USA.gov is the U.S. government's official web portal to all federal, state and local government web resources and services.